sensor_id;sensor_type;location;lat;lon;timestamp;P1;durP1;ratioP1;P2;durP2;ratioP2
9745;SDS011;4912;50.836;12.958;2024-03-02T00:00:23;44.05;;;25.85;;
9745;SDS011;4912;50.836;12.958;2024-03-02T00:02:54;50.40;;;27.42;;
9745;SDS011;4912;50.836;12.958;2024-03-02T00:05:24;49.92;;;26.95;;
9745;SDS011;4912;50.836;12.958;2024-03-02T00:07:58;47.63;;;27.15;;
9745;SDS011;4912;50.836;12.958;2024-03-02T00:10:32;49.75;;;28.60;;
9745;SDS011;4912;50.836;12.958;2024-03-02T00:13:08;47.83;;;27.77;;
9745;SDS011;4912;50.836;12.958;2024-03-02T00:15:45;47.70;;;27.35;;
9745;SDS011;4912;50.836;12.958;2024-03-02T00:18:25;46.78;;;26.92;;
9745;SDS011;4912;50.836;12.958;2024-03-02T00:20:57;45.65;;;28.10;;
9745;SDS011;4912;50.836;12.958;2024-03-02T00:23:29;47.30;;;27.90;;
9745;SDS011;4912;50.836;12.958;2024-03-02T00:26:02;49.50;;;29.10;;
9745;SDS011;4912;50.836;12.958;2024-03-02T00:28:35;48.13;;;28.20;;
9745;SDS011;4912;50.836;12.958;2024-03-02T00:31:09;50.47;;;27.10;;
9745;SDS011;4912;50.836;12.958;2024-03-02T00:33:41;53.83;;;28.48;;
9745;SDS011;4912;50.836;12.958;2024-03-02T00:36:14;50.20;;;27.05;;
9745;SDS011;4912;50.836;12.958;2024-03-02T00:38:47;49.22;;;27.90;;
9745;SDS011;4912;50.836;12.958;2024-03-02T00:41:23;46.78;;;27.02;;
9745;SDS011;4912;50.836;12.958;2024-03-02T00:43:57;47.05;;;27.70;;
9745;SDS011;4912;50.836;12.958;2024-03-02T00:46:33;50.53;;;27.67;;
9745;SDS011;4912;50.836;12.958;2024-03-02T00:49:05;50.58;;;26.30;;
9745;SDS011;4912;50.836;12.958;2024-03-02T00:51:42;45.90;;;26.40;;
9745;SDS011;4912;50.836;12.958;2024-03-02T00:54:19;49.75;;;25.05;;
9745;SDS011;4912;50.836;12.958;2024-03-02T00:56:52;44.85;;;25.48;;
9745;SDS011;4912;50.836;12.958;2024-03-02T00:59:24;44.10;;;24.73;;
9745;SDS011;4912;50.836;12.958;2024-03-02T01:01:59;45.17;;;25.35;;
9745;SDS011;4912;50.836;12.958;2024-03-02T01:04:30;39.47;;;24.33;;
9745;SDS011;4912;50.836;12.958;2024-03-02T01:09:31;42.45;;;23.05;;
9745;SDS011;4912;50.836;12.958;2024-03-02T01:12:02;43.45;;;24.30;;
9745;SDS011;4912;50.836;12.958;2024-03-02T01:17:06;41.47;;;23.17;;
9745;SDS011;4912;50.836;12.958;2024-03-02T01:19:37;40.17;;;23.23;;
9745;SDS011;4912;50.836;12.958;2024-03-02T01:22:12;50.33;;;24.60;;
9745;SDS011;4912;50.836;12.958;2024-03-02T01:24:43;43.47;;;23.75;;
9745;SDS011;4912;50.836;12.958;2024-03-02T01:27:16;47.78;;;25.02;;
9745;SDS011;4912;50.836;12.958;2024-03-02T01:29:47;42.20;;;23.33;;
9745;SDS011;4912;50.836;12.958;2024-03-02T01:32:20;43.78;;;23.70;;
9745;SDS011;4912;50.836;12.958;2024-03-02T01:34:51;47.10;;;24.30;;
9745;SDS011;4912;50.836;12.958;2024-03-02T01:37:24;44.90;;;24.10;;
9745;SDS011;4912;50.836;12.958;2024-03-02T01:39:54;43.92;;;23.42;;
9745;SDS011;4912;50.836;12.958;2024-03-02T01:42:25;42.15;;;22.02;;
9745;SDS011;4912;50.836;12.958;2024-03-02T01:44:57;44.30;;;22.63;;
9745;SDS011;4912;50.836;12.958;2024-03-02T01:47:31;43.17;;;22.67;;
9745;SDS011;4912;50.836;12.958;2024-03-02T01:50:02;39.78;;;23.20;;
9745;SDS011;4912;50.836;12.958;2024-03-02T01:52:34;41.35;;;23.67;;
9745;SDS011;4912;50.836;12.958;2024-03-02T01:55:05;39.58;;;21.45;;
9745;SDS011;4912;50.836;12.958;2024-03-02T01:57:37;38.38;;;22.00;;
9745;SDS011;4912;50.836;12.958;2024-03-02T02:00:08;40.33;;;22.13;;
9745;SDS011;4912;50.836;12.958;2024-03-02T02:02:43;39.63;;;21.77;;
9745;SDS011;4912;50.836;12.958;2024-03-02T02:05:14;38.10;;;21.77;;
9745;SDS011;4912;50.836;12.958;2024-03-02T02:07:45;38.35;;;22.98;;
9745;SDS011;4912;50.836;12.958;2024-03-02T02:10:19;40.95;;;22.25;;
9745;SDS011;4912;50.836;12.958;2024-03-02T02:12:50;43.35;;;23.45;;
9745;SDS011;4912;50.836;12.958;2024-03-02T02:15:21;38.67;;;20.67;;
9745;SDS011;4912;50.836;12.958;2024-03-02T02:17:58;34.00;;;19.30;;
9745;SDS011;4912;50.836;12.958;2024-03-02T02:20:29;32.55;;;18.95;;
9745;SDS011;4912;50.836;12.958;2024-03-02T02:23:00;35.80;;;19.83;;
9745;SDS011;4912;50.836;12.958;2024-03-02T02:25:32;33.88;;;19.13;;
9745;SDS011;4912;50.836;12.958;2024-03-02T02:28:08;33.90;;;19.30;;
9745;SDS011;4912;50.836;12.958;2024-03-02T02:30:39;33.85;;;18.75;;
9745;SDS011;4912;50.836;12.958;2024-03-02T02:33:10;32.15;;;18.58;;
9745;SDS011;4912;50.836;12.958;2024-03-02T02:35:41;34.38;;;18.60;;
9745;SDS011;4912;50.836;12.958;2024-03-02T02:38:15;33.70;;;19.33;;
9745;SDS011;4912;50.836;12.958;2024-03-02T02:40:49;30.48;;;18.05;;
9745;SDS011;4912;50.836;12.958;2024-03-02T02:43:20;31.75;;;17.48;;
9745;SDS011;4912;50.836;12.958;2024-03-02T02:45:50;29.38;;;18.08;;
9745;SDS011;4912;50.836;12.958;2024-03-02T02:48:22;29.20;;;17.20;;
9745;SDS011;4912;50.836;12.958;2024-03-02T02:50:52;29.00;;;16.88;;
9745;SDS011;4912;50.836;12.958;2024-03-02T02:53:32;27.60;;;15.20;;
9745;SDS011;4912;50.836;12.958;2024-03-02T02:56:07;27.33;;;15.87;;
9745;SDS011;4912;50.836;12.958;2024-03-02T02:58:40;28.08;;;16.40;;
9745;SDS011;4912;50.836;12.958;2024-03-02T03:01:11;27.35;;;17.00;;
9745;SDS011;4912;50.836;12.958;2024-03-02T03:03:41;29.60;;;16.45;;
9745;SDS011;4912;50.836;12.958;2024-03-02T03:06:12;27.02;;;16.70;;
9745;SDS011;4912;50.836;12.958;2024-03-02T03:08:47;29.98;;;17.70;;
9745;SDS011;4912;50.836;12.958;2024-03-02T03:11:17;29.48;;;16.40;;
9745;SDS011;4912;50.836;12.958;2024-03-02T03:13:52;27.95;;;17.08;;
9745;SDS011;4912;50.836;12.958;2024-03-02T03:16:23;30.83;;;16.60;;
9745;SDS011;4912;50.836;12.958;2024-03-02T03:18:55;26.75;;;16.15;;
9745;SDS011;4912;50.836;12.958;2024-03-02T03:21:28;30.90;;;16.80;;
9745;SDS011;4912;50.836;12.958;2024-03-02T03:24:02;29.02;;;18.05;;
9745;SDS011;4912;50.836;12.958;2024-03-02T03:26:35;29.08;;;17.27;;
9745;SDS011;4912;50.836;12.958;2024-03-02T03:29:06;31.90;;;19.10;;
9745;SDS011;4912;50.836;12.958;2024-03-02T03:31:37;32.30;;;17.52;;
9745;SDS011;4912;50.836;12.958;2024-03-02T03:34:07;29.92;;;17.58;;
9745;SDS011;4912;50.836;12.958;2024-03-02T03:36:39;30.02;;;17.27;;
9745;SDS011;4912;50.836;12.958;2024-03-02T03:39:14;30.02;;;16.77;;
9745;SDS011;4912;50.836;12.958;2024-03-02T03:41:45;29.42;;;18.30;;
9745;SDS011;4912;50.836;12.958;2024-03-02T03:44:16;29.67;;;18.02;;
9745;SDS011;4912;50.836;12.958;2024-03-02T03:46:46;30.63;;;18.38;;
9745;SDS011;4912;50.836;12.958;2024-03-02T03:49:17;29.15;;;17.48;;
9745;SDS011;4912;50.836;12.958;2024-03-02T03:51:48;32.45;;;18.73;;
9745;SDS011;4912;50.836;12.958;2024-03-02T03:56:55;32.63;;;17.98;;
9745;SDS011;4912;50.836;12.958;2024-03-02T03:59:26;31.65;;;17.85;;
9745;SDS011;4912;50.836;12.958;2024-03-02T04:01:56;30.83;;;18.25;;
9745;SDS011;4912;50.836;12.958;2024-03-02T04:04:27;33.85;;;17.88;;
9745;SDS011;4912;50.836;12.958;2024-03-02T04:06:57;35.88;;;20.00;;
9745;SDS011;4912;50.836;12.958;2024-03-02T04:09:31;28.10;;;18.40;;
9745;SDS011;4912;50.836;12.958;2024-03-02T04:12:02;32.25;;;19.80;;
9745;SDS011;4912;50.836;12.958;2024-03-02T04:14:33;40.15;;;22.08;;
9745;SDS011;4912;50.836;12.958;2024-03-02T04:17:04;35.08;;;20.60;;
9745;SDS011;4912;50.836;12.958;2024-03-02T04:19:35;35.40;;;21.27;;
9745;SDS011;4912;50.836;12.958;2024-03-02T04:22:05;34.08;;;19.60;;
9745;SDS011;4912;50.836;12.958;2024-03-02T04:27:20;37.65;;;19.88;;
9745;SDS011;4912;50.836;12.958;2024-03-02T04:32:21;33.83;;;18.50;;
9745;SDS011;4912;50.836;12.958;2024-03-02T04:34:52;29.73;;;18.23;;
9745;SDS011;4912;50.836;12.958;2024-03-02T04:37:25;31.35;;;18.42;;
9745;SDS011;4912;50.836;12.958;2024-03-02T04:39:58;30.58;;;17.95;;
9745;SDS011;4912;50.836;12.958;2024-03-02T04:42:29;35.17;;;17.77;;
9745;SDS011;4912;50.836;12.958;2024-03-02T04:44:59;35.85;;;20.13;;
9745;SDS011;4912;50.836;12.958;2024-03-02T04:47:30;32.80;;;19.25;;
9745;SDS011;4912;50.836;12.958;2024-03-02T04:50:01;30.75;;;18.00;;
9745;SDS011;4912;50.836;12.958;2024-03-02T04:52:31;29.67;;;17.42;;
9745;SDS011;4912;50.836;12.958;2024-03-02T04:55:05;35.63;;;19.27;;
9745;SDS011;4912;50.836;12.958;2024-03-02T04:58:12;31.25;;;18.42;;
9745;SDS011;4912;50.836;12.958;2024-03-02T05:03:13;35.08;;;20.25;;
9745;SDS011;4912;50.836;12.958;2024-03-02T05:05:44;37.55;;;19.30;;
9745;SDS011;4912;50.836;12.958;2024-03-02T05:08:15;33.65;;;19.75;;
9745;SDS011;4912;50.836;12.958;2024-03-02T05:10:48;35.47;;;19.73;;
9745;SDS011;4912;50.836;12.958;2024-03-02T05:13:19;33.63;;;19.98;;
9745;SDS011;4912;50.836;12.958;2024-03-02T05:15:48;34.38;;;20.95;;
9745;SDS011;4912;50.836;12.958;2024-03-02T05:18:19;34.67;;;19.23;;
9745;SDS011;4912;50.836;12.958;2024-03-02T05:20:50;34.88;;;20.77;;
9745;SDS011;4912;50.836;12.958;2024-03-02T05:23:21;28.20;;;18.02;;
9745;SDS011;4912;50.836;12.958;2024-03-02T05:25:55;29.45;;;17.77;;
9745;SDS011;4912;50.836;12.958;2024-03-02T05:28:26;30.58;;;17.25;;
9745;SDS011;4912;50.836;12.958;2024-03-02T05:30:57;29.65;;;17.42;;
9745;SDS011;4912;50.836;12.958;2024-03-02T05:33:28;31.10;;;17.98;;
9745;SDS011;4912;50.836;12.958;2024-03-02T05:36:00;29.38;;;17.23;;
9745;SDS011;4912;50.836;12.958;2024-03-02T05:38:37;28.63;;;18.40;;
9745;SDS011;4912;50.836;12.958;2024-03-02T05:41:11;29.15;;;18.02;;
9745;SDS011;4912;50.836;12.958;2024-03-02T05:43:42;31.27;;;18.80;;
9745;SDS011;4912;50.836;12.958;2024-03-02T05:46:12;44.33;;;27.27;;
9745;SDS011;4912;50.836;12.958;2024-03-02T05:48:44;32.42;;;18.73;;
9745;SDS011;4912;50.836;12.958;2024-03-02T05:51:17;28.45;;;17.65;;
9745;SDS011;4912;50.836;12.958;2024-03-02T05:53:49;30.88;;;17.48;;
9745;SDS011;4912;50.836;12.958;2024-03-02T05:56:28;30.00;;;18.13;;
9745;SDS011;4912;50.836;12.958;2024-03-02T05:59:00;54.17;;;31.48;;
9745;SDS011;4912;50.836;12.958;2024-03-02T06:01:40;37.17;;;20.55;;
9745;SDS011;4912;50.836;12.958;2024-03-02T06:04:12;37.00;;;21.83;;
9745;SDS011;4912;50.836;12.958;2024-03-02T06:06:43;30.67;;;18.00;;
9745;SDS011;4912;50.836;12.958;2024-03-02T06:09:16;30.42;;;17.13;;
9745;SDS011;4912;50.836;12.958;2024-03-02T06:11:51;27.80;;;16.38;;
9745;SDS011;4912;50.836;12.958;2024-03-02T06:14:23;27.85;;;17.05;;
9745;SDS011;4912;50.836;12.958;2024-03-02T06:16:54;28.55;;;17.40;;
9745;SDS011;4912;50.836;12.958;2024-03-02T06:19:24;30.42;;;17.80;;
9745;SDS011;4912;50.836;12.958;2024-03-02T06:21:55;28.65;;;16.10;;
9745;SDS011;4912;50.836;12.958;2024-03-02T06:24:27;26.60;;;16.08;;
9745;SDS011;4912;50.836;12.958;2024-03-02T06:27:03;31.33;;;18.13;;
9745;SDS011;4912;50.836;12.958;2024-03-02T06:29:38;30.23;;;18.17;;
9745;SDS011;4912;50.836;12.958;2024-03-02T06:32:10;28.35;;;16.20;;
9745;SDS011;4912;50.836;12.958;2024-03-02T06:34:41;29.67;;;17.55;;
9745;SDS011;4912;50.836;12.958;2024-03-02T06:37:17;30.27;;;18.52;;
9745;SDS011;4912;50.836;12.958;2024-03-02T06:40:00;26.17;;;16.02;;
9745;SDS011;4912;50.836;12.958;2024-03-02T06:42:47;24.85;;;14.02;;
9745;SDS011;4912;50.836;12.958;2024-03-02T06:45:23;22.10;;;14.32;;
9745;SDS011;4912;50.836;12.958;2024-03-02T06:47:56;22.30;;;14.27;;
9745;SDS011;4912;50.836;12.958;2024-03-02T06:50:30;20.10;;;12.85;;
9745;SDS011;4912;50.836;12.958;2024-03-02T06:53:06;25.95;;;13.40;;
9745;SDS011;4912;50.836;12.958;2024-03-02T06:55:37;21.75;;;13.68;;
9745;SDS011;4912;50.836;12.958;2024-03-02T06:58:15;22.30;;;13.32;;
9745;SDS011;4912;50.836;12.958;2024-03-02T07:00:46;23.67;;;13.73;;
9745;SDS011;4912;50.836;12.958;2024-03-02T07:03:18;17.98;;;12.50;;
9745;SDS011;4912;50.836;12.958;2024-03-02T07:05:49;23.05;;;13.57;;
9745;SDS011;4912;50.836;12.958;2024-03-02T07:08:23;20.70;;;13.70;;
9745;SDS011;4912;50.836;12.958;2024-03-02T07:13:30;20.02;;;12.13;;
9745;SDS011;4912;50.836;12.958;2024-03-02T07:16:01;20.58;;;12.57;;
9745;SDS011;4912;50.836;12.958;2024-03-02T07:19:18;23.58;;;14.40;;
9745;SDS011;4912;50.836;12.958;2024-03-02T07:24:20;71.85;;;41.35;;
9745;SDS011;4912;50.836;12.958;2024-03-02T07:26:52;39.08;;;24.60;;
9745;SDS011;4912;50.836;12.958;2024-03-02T07:29:25;22.83;;;14.25;;
9745;SDS011;4912;50.836;12.958;2024-03-02T07:31:56;19.88;;;13.20;;
9745;SDS011;4912;50.836;12.958;2024-03-02T07:34:27;20.83;;;12.50;;
9745;SDS011;4912;50.836;12.958;2024-03-02T07:36:59;19.38;;;12.88;;
9745;SDS011;4912;50.836;12.958;2024-03-02T07:39:33;23.40;;;13.40;;
9745;SDS011;4912;50.836;12.958;2024-03-02T07:44:37;20.70;;;12.50;;
9745;SDS011;4912;50.836;12.958;2024-03-02T07:47:08;20.35;;;12.68;;
9745;SDS011;4912;50.836;12.958;2024-03-02T07:49:42;22.02;;;13.02;;
9745;SDS011;4912;50.836;12.958;2024-03-02T07:52:17;24.42;;;13.52;;
9745;SDS011;4912;50.836;12.958;2024-03-02T07:54:48;22.27;;;12.70;;
9745;SDS011;4912;50.836;12.958;2024-03-02T07:57:19;22.60;;;13.32;;
9745;SDS011;4912;50.836;12.958;2024-03-02T07:59:52;22.23;;;13.38;;
9745;SDS011;4912;50.836;12.958;2024-03-02T08:02:37;26.20;;;13.18;;
9745;SDS011;4912;50.836;12.958;2024-03-02T08:05:10;29.40;;;14.07;;
9745;SDS011;4912;50.836;12.958;2024-03-02T08:07:46;23.95;;;13.45;;
9745;SDS011;4912;50.836;12.958;2024-03-02T08:10:19;24.58;;;14.15;;
9745;SDS011;4912;50.836;12.958;2024-03-02T08:12:52;25.10;;;15.32;;
9745;SDS011;4912;50.836;12.958;2024-03-02T08:15:28;22.85;;;14.15;;
9745;SDS011;4912;50.836;12.958;2024-03-02T08:17:59;30.85;;;14.70;;
9745;SDS011;4912;50.836;12.958;2024-03-02T08:20:29;25.80;;;14.82;;
9745;SDS011;4912;50.836;12.958;2024-03-02T08:23:00;33.58;;;19.95;;
9745;SDS011;4912;50.836;12.958;2024-03-02T08:25:31;25.13;;;14.00;;
9745;SDS011;4912;50.836;12.958;2024-03-02T08:28:02;24.92;;;15.13;;
9745;SDS011;4912;50.836;12.958;2024-03-02T08:30:37;24.30;;;15.18;;
9745;SDS011;4912;50.836;12.958;2024-03-02T08:33:08;26.27;;;14.18;;
9745;SDS011;4912;50.836;12.958;2024-03-02T08:35:39;21.33;;;12.55;;
9745;SDS011;4912;50.836;12.958;2024-03-02T08:38:10;23.50;;;13.93;;
9745;SDS011;4912;50.836;12.958;2024-03-02T08:40:40;25.77;;;15.18;;
9745;SDS011;4912;50.836;12.958;2024-03-02T08:43:11;21.88;;;14.02;;
9745;SDS011;4912;50.836;12.958;2024-03-02T08:45:44;27.05;;;14.70;;
9745;SDS011;4912;50.836;12.958;2024-03-02T08:48:16;21.15;;;13.05;;
9745;SDS011;4912;50.836;12.958;2024-03-02T08:50:47;23.13;;;13.73;;
9745;SDS011;4912;50.836;12.958;2024-03-02T08:53:18;21.98;;;13.70;;
9745;SDS011;4912;50.836;12.958;2024-03-02T08:55:49;17.50;;;12.05;;
9745;SDS011;4912;50.836;12.958;2024-03-02T08:58:24;21.67;;;12.23;;
9745;SDS011;4912;50.836;12.958;2024-03-02T09:00:58;20.73;;;12.82;;
9745;SDS011;4912;50.836;12.958;2024-03-02T09:03:28;17.88;;;11.65;;
9745;SDS011;4912;50.836;12.958;2024-03-02T09:06:00;26.00;;;12.55;;
9745;SDS011;4912;50.836;12.958;2024-03-02T09:08:31;21.45;;;12.65;;
9745;SDS011;4912;50.836;12.958;2024-03-02T09:11:03;17.65;;;11.40;;
9745;SDS011;4912;50.836;12.958;2024-03-02T09:13:34;19.77;;;12.27;;
9745;SDS011;4912;50.836;12.958;2024-03-02T09:16:08;20.08;;;12.68;;
9745;SDS011;4912;50.836;12.958;2024-03-02T09:18:39;22.52;;;12.70;;
9745;SDS011;4912;50.836;12.958;2024-03-02T09:21:10;21.77;;;12.63;;
9745;SDS011;4912;50.836;12.958;2024-03-02T09:23:42;22.83;;;13.75;;
9745;SDS011;4912;50.836;12.958;2024-03-02T09:26:14;22.88;;;12.90;;
9745;SDS011;4912;50.836;12.958;2024-03-02T09:28:46;20.50;;;13.13;;
9745;SDS011;4912;50.836;12.958;2024-03-02T09:31:19;21.60;;;13.35;;
9745;SDS011;4912;50.836;12.958;2024-03-02T09:33:50;22.88;;;14.80;;
9745;SDS011;4912;50.836;12.958;2024-03-02T09:36:21;24.25;;;13.88;;
9745;SDS011;4912;50.836;12.958;2024-03-02T09:38:53;20.52;;;12.73;;
9745;SDS011;4912;50.836;12.958;2024-03-02T09:41:24;21.85;;;14.20;;
9745;SDS011;4912;50.836;12.958;2024-03-02T09:43:55;19.33;;;11.75;;
9745;SDS011;4912;50.836;12.958;2024-03-02T09:46:28;21.92;;;12.10;;
9745;SDS011;4912;50.836;12.958;2024-03-02T09:48:59;19.48;;;11.95;;
9745;SDS011;4912;50.836;12.958;2024-03-02T09:51:30;17.10;;;10.93;;
9745;SDS011;4912;50.836;12.958;2024-03-02T09:54:02;22.30;;;11.65;;
9745;SDS011;4912;50.836;12.958;2024-03-02T09:56:47;20.30;;;11.82;;
9745;SDS011;4912;50.836;12.958;2024-03-02T09:59:18;18.65;;;11.25;;
9745;SDS011;4912;50.836;12.958;2024-03-02T10:01:59;18.70;;;10.68;;
9745;SDS011;4912;50.836;12.958;2024-03-02T10:04:34;16.90;;;10.40;;
9745;SDS011;4912;50.836;12.958;2024-03-02T10:12:18;16.98;;;10.25;;
9745;SDS011;4912;50.836;12.958;2024-03-02T10:14:49;18.10;;;10.50;;
9745;SDS011;4912;50.836;12.958;2024-03-02T10:17:39;18.58;;;11.10;;
9745;SDS011;4912;50.836;12.958;2024-03-02T10:20:22;14.13;;;9.80;;
9745;SDS011;4912;50.836;12.958;2024-03-02T10:22:56;14.40;;;8.88;;
9745;SDS011;4912;50.836;12.958;2024-03-02T10:25:41;15.90;;;9.73;;
9745;SDS011;4912;50.836;12.958;2024-03-02T10:28:23;14.00;;;9.27;;
9745;SDS011;4912;50.836;12.958;2024-03-02T10:30:55;13.30;;;8.65;;
9745;SDS011;4912;50.836;12.958;2024-03-02T10:35:59;14.07;;;8.43;;
9745;SDS011;4912;50.836;12.958;2024-03-02T10:38:30;13.55;;;8.60;;
9745;SDS011;4912;50.836;12.958;2024-03-02T10:41:01;13.05;;;8.88;;
9745;SDS011;4912;50.836;12.958;2024-03-02T10:43:33;15.55;;;8.38;;
9745;SDS011;4912;50.836;12.958;2024-03-02T10:46:04;13.20;;;8.80;;
9745;SDS011;4912;50.836;12.958;2024-03-02T10:51:10;12.07;;;8.38;;
9745;SDS011;4912;50.836;12.958;2024-03-02T10:53:41;22.80;;;13.30;;
9745;SDS011;4912;50.836;12.958;2024-03-02T10:56:13;14.77;;;9.70;;
9745;SDS011;4912;50.836;12.958;2024-03-02T10:58:52;12.25;;;7.80;;
9745;SDS011;4912;50.836;12.958;2024-03-02T11:01:32;12.95;;;7.50;;
9745;SDS011;4912;50.836;12.958;2024-03-02T11:04:07;10.77;;;7.63;;
9745;SDS011;4912;50.836;12.958;2024-03-02T11:06:41;21.25;;;15.70;;
9745;SDS011;4912;50.836;12.958;2024-03-02T11:09:19;22.83;;;15.95;;
9745;SDS011;4912;50.836;12.958;2024-03-02T11:11:54;10.82;;;7.47;;
9745;SDS011;4912;50.836;12.958;2024-03-02T11:14:42;9.65;;;6.57;;
9745;SDS011;4912;50.836;12.958;2024-03-02T11:17:15;9.63;;;6.82;;
9745;SDS011;4912;50.836;12.958;2024-03-02T11:19:53;9.40;;;6.75;;
9745;SDS011;4912;50.836;12.958;2024-03-02T11:22:25;10.88;;;7.47;;
9745;SDS011;4912;50.836;12.958;2024-03-02T11:24:59;10.52;;;6.68;;
9745;SDS011;4912;50.836;12.958;2024-03-02T11:33:24;9.77;;;6.95;;
9745;SDS011;4912;50.836;12.958;2024-03-02T11:36:02;9.15;;;6.43;;
9745;SDS011;4912;50.836;12.958;2024-03-02T11:38:43;8.80;;;6.15;;
9745;SDS011;4912;50.836;12.958;2024-03-02T11:41:16;35.88;;;24.25;;
9745;SDS011;4912;50.836;12.958;2024-03-02T11:43:49;16.67;;;11.13;;
9745;SDS011;4912;50.836;12.958;2024-03-02T11:46:18;11.68;;;6.97;;
9745;SDS011;4912;50.836;12.958;2024-03-02T11:48:56;10.43;;;6.82;;
9745;SDS011;4912;50.836;12.958;2024-03-02T11:51:29;9.65;;;6.45;;
9745;SDS011;4912;50.836;12.958;2024-03-02T11:54:03;8.93;;;6.63;;
9745;SDS011;4912;50.836;12.958;2024-03-02T11:56:36;9.25;;;5.45;;
9745;SDS011;4912;50.836;12.958;2024-03-02T11:59:10;8.82;;;5.07;;
9745;SDS011;4912;50.836;12.958;2024-03-02T12:01:44;7.35;;;4.70;;
9745;SDS011;4912;50.836;12.958;2024-03-02T12:04:18;6.15;;;4.22;;
9745;SDS011;4912;50.836;12.958;2024-03-02T12:06:56;10.60;;;4.80;;
9745;SDS011;4912;50.836;12.958;2024-03-02T12:09:29;10.88;;;6.07;;
9745;SDS011;4912;50.836;12.958;2024-03-02T12:12:01;10.05;;;5.55;;
9745;SDS011;4912;50.836;12.958;2024-03-02T12:14:37;10.63;;;5.75;;
9745;SDS011;4912;50.836;12.958;2024-03-02T12:17:08;10.10;;;5.97;;
9745;SDS011;4912;50.836;12.958;2024-03-02T12:19:42;9.40;;;5.45;;
9745;SDS011;4912;50.836;12.958;2024-03-02T12:22:15;8.95;;;5.43;;
9745;SDS011;4912;50.836;12.958;2024-03-02T12:24:46;8.85;;;5.45;;
9745;SDS011;4912;50.836;12.958;2024-03-02T12:27:17;13.23;;;6.30;;
9745;SDS011;4912;50.836;12.958;2024-03-02T12:29:49;13.23;;;5.90;;
9745;SDS011;4912;50.836;12.958;2024-03-02T12:32:23;12.57;;;5.25;;
9745;SDS011;4912;50.836;12.958;2024-03-02T12:34:54;11.23;;;5.35;;
9745;SDS011;4912;50.836;12.958;2024-03-02T12:37:28;8.48;;;5.03;;
9745;SDS011;4912;50.836;12.958;2024-03-02T12:39:59;8.20;;;4.35;;
9745;SDS011;4912;50.836;12.958;2024-03-02T12:42:30;9.95;;;5.72;;
9745;SDS011;4912;50.836;12.958;2024-03-02T12:45:01;9.77;;;6.00;;
9745;SDS011;4912;50.836;12.958;2024-03-02T12:47:32;12.68;;;6.13;;
9745;SDS011;4912;50.836;12.958;2024-03-02T12:50:04;11.23;;;6.20;;
9745;SDS011;4912;50.836;12.958;2024-03-02T12:52:40;11.32;;;6.20;;
9745;SDS011;4912;50.836;12.958;2024-03-02T12:55:15;37.60;;;27.73;;
9745;SDS011;4912;50.836;12.958;2024-03-02T12:57:46;25.85;;;16.05;;
9745;SDS011;4912;50.836;12.958;2024-03-02T13:00:17;11.52;;;6.43;;
9745;SDS011;4912;50.836;12.958;2024-03-02T13:02:50;13.30;;;5.75;;
9745;SDS011;4912;50.836;12.958;2024-03-02T13:05:29;14.25;;;6.07;;
9745;SDS011;4912;50.836;12.958;2024-03-02T13:08:07;15.90;;;7.70;;
9745;SDS011;4912;50.836;12.958;2024-03-02T13:10:37;11.65;;;6.65;;
9745;SDS011;4912;50.836;12.958;2024-03-02T13:13:08;10.88;;;6.50;;
9745;SDS011;4912;50.836;12.958;2024-03-02T13:15:40;16.75;;;7.70;;
9745;SDS011;4912;50.836;12.958;2024-03-02T13:18:13;13.85;;;7.00;;
9745;SDS011;4912;50.836;12.958;2024-03-02T13:20:43;15.23;;;6.43;;
9745;SDS011;4912;50.836;12.958;2024-03-02T13:23:17;14.35;;;6.53;;
9745;SDS011;4912;50.836;12.958;2024-03-02T13:25:48;15.57;;;7.20;;
9745;SDS011;4912;50.836;12.958;2024-03-02T13:28:19;12.70;;;6.90;;
9745;SDS011;4912;50.836;12.958;2024-03-02T13:30:50;15.95;;;7.47;;
9745;SDS011;4912;50.836;12.958;2024-03-02T13:33:21;14.80;;;7.25;;
9745;SDS011;4912;50.836;12.958;2024-03-02T13:35:52;20.10;;;11.82;;
9745;SDS011;4912;50.836;12.958;2024-03-02T13:38:25;13.15;;;7.30;;
9745;SDS011;4912;50.836;12.958;2024-03-02T13:40:56;17.50;;;6.80;;
9745;SDS011;4912;50.836;12.958;2024-03-02T13:43:28;16.95;;;6.85;;
9745;SDS011;4912;50.836;12.958;2024-03-02T13:46:00;12.05;;;6.78;;
9745;SDS011;4912;50.836;12.958;2024-03-02T13:48:33;11.88;;;6.88;;
9745;SDS011;4912;50.836;12.958;2024-03-02T13:51:04;12.30;;;7.03;;
9745;SDS011;4912;50.836;12.958;2024-03-02T13:53:38;14.07;;;6.90;;
9745;SDS011;4912;50.836;12.958;2024-03-02T13:56:08;12.75;;;7.25;;
9745;SDS011;4912;50.836;12.958;2024-03-02T13:58:39;11.98;;;7.15;;
9745;SDS011;4912;50.836;12.958;2024-03-02T14:01:11;11.90;;;6.50;;
9745;SDS011;4912;50.836;12.958;2024-03-02T14:03:42;29.08;;;19.23;;
9745;SDS011;4912;50.836;12.958;2024-03-02T14:06:16;13.35;;;6.60;;
9745;SDS011;4912;50.836;12.958;2024-03-02T14:08:50;12.30;;;6.35;;
9745;SDS011;4912;50.836;12.958;2024-03-02T14:11:21;13.05;;;6.25;;
9745;SDS011;4912;50.836;12.958;2024-03-02T14:13:52;11.30;;;6.80;;
9745;SDS011;4912;50.836;12.958;2024-03-02T14:16:23;11.68;;;6.28;;
9745;SDS011;4912;50.836;12.958;2024-03-02T14:18:55;12.55;;;6.65;;
9745;SDS011;4912;50.836;12.958;2024-03-02T14:21:26;11.57;;;6.85;;
9745;SDS011;4912;50.836;12.958;2024-03-02T14:23:59;15.85;;;8.25;;
9745;SDS011;4912;50.836;12.958;2024-03-02T14:26:30;16.05;;;7.95;;
9745;SDS011;4912;50.836;12.958;2024-03-02T14:29:01;32.20;;;23.35;;
9745;SDS011;4912;50.836;12.958;2024-03-02T14:31:32;46.85;;;32.97;;
9745;SDS011;4912;50.836;12.958;2024-03-02T14:34:03;19.30;;;10.43;;
9745;SDS011;4912;50.836;12.958;2024-03-02T14:36:34;15.65;;;8.60;;
9745;SDS011;4912;50.836;12.958;2024-03-02T14:39:10;22.83;;;11.25;;
9745;SDS011;4912;50.836;12.958;2024-03-02T14:41:41;16.00;;;8.65;;
9745;SDS011;4912;50.836;12.958;2024-03-02T14:44:15;14.10;;;7.82;;
9745;SDS011;4912;50.836;12.958;2024-03-02T14:46:50;14.70;;;7.68;;
9745;SDS011;4912;50.836;12.958;2024-03-02T14:49:22;14.07;;;7.38;;
9745;SDS011;4912;50.836;12.958;2024-03-02T14:51:54;16.52;;;8.18;;
9745;SDS011;4912;50.836;12.958;2024-03-02T14:54:30;11.68;;;6.85;;
9745;SDS011;4912;50.836;12.958;2024-03-02T14:57:02;10.93;;;7.00;;
9745;SDS011;4912;50.836;12.958;2024-03-02T14:59:35;11.48;;;7.25;;
9745;SDS011;4912;50.836;12.958;2024-03-02T15:02:06;14.35;;;7.95;;
9745;SDS011;4912;50.836;12.958;2024-03-02T15:04:38;14.05;;;8.77;;
9745;SDS011;4912;50.836;12.958;2024-03-02T15:07:10;17.48;;;10.00;;
9745;SDS011;4912;50.836;12.958;2024-03-02T15:12:14;19.58;;;10.77;;
9745;SDS011;4912;50.836;12.958;2024-03-02T15:14:45;17.13;;;10.25;;
9745;SDS011;4912;50.836;12.958;2024-03-02T15:17:16;16.45;;;10.27;;
9745;SDS011;4912;50.836;12.958;2024-03-02T15:22:17;16.83;;;9.40;;
9745;SDS011;4912;50.836;12.958;2024-03-02T15:24:51;14.90;;;9.02;;
9745;SDS011;4912;50.836;12.958;2024-03-02T15:27:22;16.75;;;9.95;;
9745;SDS011;4912;50.836;12.958;2024-03-02T15:29:54;18.45;;;9.35;;
9745;SDS011;4912;50.836;12.958;2024-03-02T15:37:26;20.85;;;11.60;;
9745;SDS011;4912;50.836;12.958;2024-03-02T15:40:00;15.20;;;9.35;;
9745;SDS011;4912;50.836;12.958;2024-03-02T15:42:35;15.70;;;9.30;;
9745;SDS011;4912;50.836;12.958;2024-03-02T15:45:07;20.23;;;10.95;;
9745;SDS011;4912;50.836;12.958;2024-03-02T15:47:38;22.98;;;10.70;;
9745;SDS011;4912;50.836;12.958;2024-03-02T15:50:15;18.00;;;10.93;;
9745;SDS011;4912;50.836;12.958;2024-03-02T15:52:49;21.15;;;12.20;;
9745;SDS011;4912;50.836;12.958;2024-03-02T15:55:25;22.25;;;12.88;;
9745;SDS011;4912;50.836;12.958;2024-03-02T15:57:56;25.02;;;14.90;;
9745;SDS011;4912;50.836;12.958;2024-03-02T16:00:27;27.25;;;15.02;;